Time;durP1;ratioP1;P1;durP2;ratioP2;P2;SDS_P1;SDS_P2;PMS_P1;PMS_P2;Temp;Humidity;BMP_temperature;BMP_pressure;BME280_temperature;BME280_humidity;BME280_pressure;Samples;Min_cycle;Max_cycle;Signal;HPM_P1;HPM_P2
2021/03/01 00:01:04;;;;;;;7.03;6.33;;;;;;;-1.53;83.73;96908.59;5090368;28;20486;-75
2021/03/01 00:03:52;;;;;;;7.10;6.03;;;;;;;-1.56;84.09;96909.56;5074991;28;20538;-75
2021/03/01 00:06:40;;;;;;;8.60;7.20;;;;;;;-1.63;83.92;96900.47;5080466;28;20548;-76
2021/03/01 00:09:27;;;;;;;6.20;5.63;;;;;;;-1.71;84.21;96905.19;5087515;28;20451;-76
2021/03/01 00:12:14;;;;;;;7.90;7.07;;;;;;;-1.74;84.50;96911.38;5095943;28;20949;-76
2021/03/01 00:15:01;;;;;;;8.53;7.73;;;;;;;-1.79;84.61;96907.34;5075574;28;20497;-76
2021/03/01 00:17:48;;;;;;;6.87;6.17;;;;;;;-1.80;84.82;96906.50;5085622;28;20603;-76
2021/03/01 00:20:36;;;;;;;7.80;6.90;;;;;;;-1.79;84.90;96907.34;5081093;28;20893;-75
2021/03/01 00:23:24;;;;;;;9.13;6.30;;;;;;;-1.80;84.63;96905.66;5082378;28;20621;-76
2021/03/01 00:26:11;;;;;;;7.77;5.40;;;;;;;-1.81;85.07;96906.59;5095280;28;20465;-76
2021/03/01 00:28:58;;;;;;;7.10;6.40;;;;;;;-1.88;85.06;96903.47;5091180;28;20443;-76
2021/03/01 00:31:45;;;;;;;6.43;5.73;;;;;;;-1.88;85.63;96907.78;5088794;28;20480;-76
2021/03/01 00:34:32;;;;;;;9.50;7.47;;;;;;;-1.96;85.44;96904.75;5086355;28;20883;-76
2021/03/01 00:37:20;;;;;;;11.90;6.73;;;;;;;-2.06;85.71;96900.03;5093550;28;21069;-76
2021/03/01 00:40:09;;;;;;;7.97;6.63;;;;;;;-2.14;85.85;96899.59;5091651;28;20463;-76
2021/03/01 00:42:56;;;;;;;7.30;6.60;;;;;;;-2.31;85.84;96904.75;5077326;28;20482;-76
2021/03/01 00:45:43;;;;;;;7.47;5.80;;;;;;;-2.24;85.38;96906.13;5093574;28;20459;-76
2021/03/01 00:48:31;;;;;;;9.80;7.87;;;;;;;-2.30;84.82;96901.25;5075154;28;20458;-76
2021/03/01 00:51:18;;;;;;;6.50;5.93;;;;;;;-2.34;85.44;96910.06;5082966;28;20455;-76
2021/03/01 00:54:06;;;;;;;7.10;6.50;;;;;;;-2.40;85.64;96906.03;5071228;28;20537;-76
2021/03/01 00:57:06;;;;;;;8.50;6.73;;;;;;;-2.50;86.15;96904.78;5067017;28;21142;-76
2021/03/01 00:59:54;;;;;;;8.10;7.30;;;;;;;-2.75;86.58;96904.28;5076603;28;20458;-76
2021/03/01 01:02:42;;;;;;;8.87;7.37;;;;;;;-2.77;86.98;96912.09;5080884;28;20536;-76
2021/03/01 01:05:44;;;;;;;7.00;6.27;;;;;;;-2.79;87.12;96903.59;5070611;28;20475;-76
2021/03/01 01:08:32;;;;;;;7.37;6.83;;;;;;;-2.72;86.98;96911.91;5071059;28;21243;-76
2021/03/01 01:11:20;;;;;;;9.20;8.23;;;;;;;-2.74;87.15;96904.22;5088241;28;20886;-76
2021/03/01 01:14:07;;;;;;;11.57;10.23;;;;;;;-2.73;88.17;96908.47;5083922;28;20483;-76
2021/03/01 01:16:54;;;;;;;10.03;7.73;;;;;;;-2.75;88.18;96912.03;5095955;28;20503;-76
2021/03/01 01:19:42;;;;;;;8.70;7.87;;;;;;;-2.74;88.55;96905.94;5088175;28;21034;-76
2021/03/01 01:22:29;;;;;;;8.60;7.57;;;;;;;-2.80;88.26;96904.50;5075547;28;20520;-76
2021/03/01 01:25:17;;;;;;;7.90;7.13;;;;;;;-2.84;89.08;96904.69;5098754;28;20471;-76
2021/03/01 01:28:05;;;;;;;6.23;5.70;;;;;;;-2.84;88.85;96905.53;5090472;28;20460;-76
2021/03/01 01:30:52;;;;;;;11.70;7.43;;;;;;;-2.81;89.62;96905.41;5101428;28;20542;-76
2021/03/01 01:33:39;;;;;;;7.67;6.97;;;;;;;-2.80;89.42;96907.09;5089450;28;20506;-76
2021/03/01 01:36:28;;;;;;;9.23;7.30;;;;;;;-2.81;89.13;96905.41;5073214;28;20468;-76
2021/03/01 01:39:15;;;;;;;9.77;7.50;;;;;;;-2.78;89.27;96902.69;5089277;28;20471;-76
2021/03/01 01:42:03;;;;;;;9.57;7.30;;;;;;;-2.78;89.18;96907.84;5084456;28;20606;-76
2021/03/01 01:44:51;;;;;;;8.57;6.87;;;;;;;-2.78;89.08;96904.44;5085215;28;20555;-76
2021/03/01 01:47:38;;;;;;;10.70;7.67;;;;;;;-2.80;88.29;96901.91;5091216;28;20532;-76
2021/03/01 01:50:28;;;;;;;7.00;6.33;;;;;;;-2.79;89.03;96901.00;5085810;28;20567;-76
2021/03/01 01:53:15;;;;;;;11.57;7.77;;;;;;;-2.80;88.47;96896.75;5078654;28;20490;-76
2021/03/01 01:56:02;;;;;;;10.17;8.17;;;;;;;-2.81;88.59;96889.91;5089893;28;20523;-76
2021/03/01 01:58:49;;;;;;;6.50;5.87;;;;;;;-2.79;88.39;96898.44;5089734;28;20458;-76
2021/03/01 02:01:37;;;;;;;9.73;8.83;;;;;;;-2.80;88.65;96896.75;5088170;27;20555;-76
2021/03/01 02:04:27;;;;;;;7.53;6.93;;;;;;;-2.81;88.70;96900.25;5099056;28;21066;-76
2021/03/01 02:07:23;;;;;;;10.40;7.87;;;;;;;-2.82;88.83;96892.59;5074241;28;20613;-76
2021/03/01 02:10:23;;;;;;;10.30;7.93;;;;;;;-2.84;88.80;96894.38;5096965;28;20459;-76
2021/03/01 02:13:20;;;;;;;7.50;6.80;;;;;;;-2.85;88.86;96896.13;5095430;28;20492;-76
2021/03/01 02:16:14;;;;;;;7.90;7.17;;;;;;;-2.85;88.22;96893.53;5087980;28;20549;-76
2021/03/01 02:19:03;;;;;;;8.37;7.53;;;;;;;-2.84;88.46;96882.28;5071804;28;21235;-76
2021/03/01 02:21:51;;;;;;;9.77;8.03;;;;;;;-2.83;88.57;96886.56;5077991;28;20789;-76
2021/03/01 02:24:43;;;;;;;12.03;7.67;;;;;;;-2.77;88.50;96875.94;5065565;28;20810;-76
2021/03/01 02:27:32;;;;;;;11.20;7.73;;;;;;;-2.77;88.31;96873.34;5090908;28;20601;-76
2021/03/01 02:30:25;;;;;;;13.33;11.07;;;;;;;-2.75;87.95;96876.69;5101260;27;20543;-76
2021/03/01 02:33:14;;;;;;;12.57;7.83;;;;;;;-2.76;87.55;96872.44;5076969;28;20479;-76
2021/03/01 02:36:06;;;;;;;10.37;8.63;;;;;;;-2.76;87.40;96872.44;5065490;28;20866;-76
2021/03/01 02:38:56;;;;;;;8.27;7.13;;;;;;;-2.79;87.45;96872.59;5090061;28;20546;-76
2021/03/01 02:41:44;;;;;;;11.23;9.90;;;;;;;-2.79;87.28;96872.59;5076874;28;20559;-76
2021/03/01 02:44:33;;;;;;;12.30;10.47;;;;;;;-2.78;87.70;96874.25;5101012;28;20538;-76
2021/03/01 02:47:21;;;;;;;10.77;8.83;;;;;;;-2.77;87.59;96873.34;5089678;28;20566;-76
2021/03/01 02:50:10;;;;;;;10.57;8.73;;;;;;;-2.77;87.62;96873.34;5073130;28;20459;-76
2021/03/01 02:52:58;;;;;;;9.70;7.53;;;;;;;-2.75;87.71;96876.69;5067589;28;20487;-76
2021/03/01 02:55:48;;;;;;;13.97;8.20;;;;;;;-2.78;87.35;96869.09;5100427;28;20866;-76
2021/03/01 02:58:40;;;;;;;7.37;6.67;;;;;;;-2.81;86.86;96876.16;5091985;28;20838;-76
2021/03/01 03:01:29;;;;;;;9.10;8.17;;;;;;;-2.88;87.13;96883.34;5077170;28;20468;-76
2021/03/01 03:04:17;;;;;;;9.97;7.70;;;;;;;-2.91;86.94;96868.00;5097211;28;20501;-76
2021/03/01 03:07:06;;;;;;;11.50;8.00;;;;;;;-2.91;87.41;96868.00;5095618;28;21010;-76
2021/03/01 03:09:54;;;;;;;8.30;7.23;;;;;;;-2.91;87.26;96865.44;5087367;28;20469;-76
2021/03/01 03:12:44;;;;;;;11.23;7.03;;;;;;;-2.93;87.32;96862.91;5082632;28;20712;-76
2021/03/01 03:15:33;;;;;;;10.83;9.07;;;;;;;-3.03;86.57;96860.81;5051628;28;20748;-76
2021/03/01 03:18:22;;;;;;;8.70;7.47;;;;;;;-3.09;86.96;96861.97;5080250;28;20458;-76
2021/03/01 03:21:10;;;;;;;7.63;6.53;;;;;;;-3.16;87.61;96866.56;5064288;28;20495;-76
2021/03/01 03:23:57;;;;;;;10.50;8.20;;;;;;;-3.19;87.99;96869.28;5097644;28;21030;-76
2021/03/01 03:26:44;;;;;;;12.80;7.77;;;;;;;-3.17;87.76;96870.06;5077239;28;20475;-76
2021/03/01 03:29:33;;;;;;;9.13;7.57;;;;;;;-3.17;88.11;96867.47;5092685;28;20663;-76
2021/03/01 03:32:20;;;;;;;9.37;7.70;;;;;;;-3.15;87.03;96878.56;5073534;28;20555;-76
2021/03/01 03:35:10;;;;;;;12.77;7.57;;;;;;;-3.18;87.42;96876.13;5080127;28;20473;-76
2021/03/01 03:38:02;;;;;;;8.57;7.70;;;;;;;-3.19;87.86;96873.63;5089211;28;20501;-76
2021/03/01 03:40:51;;;;;;;9.70;7.83;;;;;;;-3.09;87.34;96868.88;5099894;28;20533;-76
2021/03/01 03:43:40;;;;;;;9.10;7.73;;;;;;;-3.09;86.88;96868.88;5089280;28;20464;-76
2021/03/01 03:46:29;;;;;;;7.63;6.63;;;;;;;-3.13;86.59;96872.50;5086426;28;20475;-76
2021/03/01 03:49:19;;;;;;;7.50;6.80;;;;;;;-3.15;86.44;96864.81;5074664;28;20467;-76
2021/03/01 03:52:08;;;;;;;9.33;8.37;;;;;;;-3.21;86.68;96863.34;5088811;28;20554;-76
2021/03/01 03:54:58;;;;;;;8.40;7.60;;;;;;;-3.25;87.59;96864.41;5098650;28;20814;-76
2021/03/01 03:57:50;;;;;;;9.73;8.50;;;;;;;-3.26;87.25;96859.31;5084183;28;21440;-76
2021/03/01 04:00:39;;;;;;;10.87;8.53;;;;;;;-3.31;87.75;96859.50;5089219;28;20552;-76
2021/03/01 04:03:29;;;;;;;8.33;7.47;;;;;;;-3.31;87.90;96862.09;5095439;28;20504;-76
2021/03/01 04:06:19;;;;;;;10.43;9.33;;;;;;;-3.32;87.99;96860.41;5089714;28;20498;-76
2021/03/01 04:09:08;;;;;;;7.50;6.73;;;;;;;-3.34;87.41;96867.41;5091616;28;20462;-76
2021/03/01 04:11:56;;;;;;;9.63;7.10;;;;;;;-3.33;87.59;96861.34;5085609;28;20475;-76
2021/03/01 04:14:46;;;;;;;11.97;7.70;;;;;;;-3.26;87.72;96873.06;5081599;28;20577;-76
2021/03/01 04:17:35;;;;;;;7.83;7.13;;;;;;;-3.30;87.48;96866.34;5090820;28;20972;-76
2021/03/01 04:20:26;;;;;;;7.77;6.13;;;;;;;-3.33;87.62;96873.41;5088755;28;20460;-76
2021/03/01 04:23:14;;;;;;;8.37;6.87;;;;;;;-3.36;86.64;96881.28;5090088;28;20521;-76
2021/03/01 04:26:02;;;;;;;7.83;7.07;;;;;;;-3.40;87.25;96885.72;5091876;28;20466;-76
2021/03/01 04:28:50;;;;;;;7.30;6.77;;;;;;;-3.49;87.17;96881.81;5096500;28;21294;-76
2021/03/01 04:31:38;;;;;;;6.00;5.50;;;;;;;-3.53;87.03;96887.19;5077121;28;20479;-76
2021/03/01 04:34:27;;;;;;;7.53;6.27;;;;;;;-3.56;87.64;96890.75;5092648;28;20467;-76
2021/03/01 04:37:15;;;;;;;7.57;6.87;;;;;;;-3.59;87.92;96890.03;5096007;28;20458;-76
2021/03/01 04:40:04;;;;;;;7.10;6.47;;;;;;;-3.64;87.48;96892.00;5091247;28;20463;-76
2021/03/01 04:42:53;;;;;;;8.60;7.07;;;;;;;-3.66;87.99;96889.47;5094028;28;20546;-76
2021/03/01 04:45:41;;;;;;;7.93;6.53;;;;;;;-3.66;88.73;96896.38;5094903;28;20475;-76
2021/03/01 04:48:31;;;;;;;8.80;7.90;;;;;;;-3.66;89.03;96904.94;5095076;28;20544;-76
2021/03/01 04:51:18;;;;;;;9.40;8.00;;;;;;;-3.66;89.22;96899.78;5069504;28;20462;-76
2021/03/01 04:54:08;;;;;;;8.77;7.37;;;;;;;-3.63;89.14;96898.84;5083143;28;20499;-76
2021/03/01 04:56:55;;;;;;;7.50;6.80;;;;;;;-3.63;89.26;96896.25;5088826;28;21031;-76
2021/03/01 04:59:43;;;;;;;16.50;7.70;;;;;;;-3.65;88.69;96883.44;5100172;28;20521;-76
2021/03/01 05:02:31;;;;;;;7.60;6.90;;;;;;;-3.66;89.26;96893.78;5089930;28;20465;-76
2021/03/01 05:05:20;;;;;;;8.00;6.80;;;;;;;-3.65;89.59;96891.16;5081818;28;20563;-76
2021/03/01 05:08:12;;;;;;;11.73;8.40;;;;;;;-3.67;90.06;96881.78;5068313;28;20474;-76
2021/03/01 05:11:00;;;;;;;8.63;7.83;;;;;;;-3.67;90.28;96886.94;5099686;28;20499;-76
2021/03/01 05:13:48;;;;;;;10.43;7.93;;;;;;;-3.63;90.12;96881.59;5079328;28;20616;-76
2021/03/01 05:16:35;;;;;;;9.73;8.73;;;;;;;-3.63;90.33;96879.03;5081214;28;20575;-76
2021/03/01 05:19:22;;;;;;;8.30;6.73;;;;;;;-3.68;89.44;96883.53;5081492;28;20495;-76
2021/03/01 05:22:10;;;;;;;8.70;7.00;;;;;;;-3.70;89.52;96884.53;5085867;28;20971;-76
2021/03/01 05:24:57;;;;;;;6.60;5.90;;;;;;;-3.72;90.43;96885.44;5062242;28;20472;-76
2021/03/01 05:27:45;;;;;;;7.57;6.80;;;;;;;-3.77;90.42;96876.19;5080020;28;20937;-76
2021/03/01 05:30:32;;;;;;;8.20;7.37;;;;;;;-3.79;90.24;96878.84;5060645;28;20549;-76
2021/03/01 05:33:20;;;;;;;10.13;7.00;;;;;;;-3.83;89.95;96876.50;5089089;28;20477;-76
2021/03/01 05:36:07;;;;;;;8.17;7.03;;;;;;;-3.84;89.91;96880.81;5082747;28;20838;-76
2021/03/01 05:38:55;;;;;;;8.50;7.60;;;;;;;-3.85;90.13;96889.41;5091929;28;20455;-76
2021/03/01 05:41:44;;;;;;;8.67;7.83;;;;;;;-3.87;90.39;96886.06;5089693;28;20962;-76
2021/03/01 05:44:33;;;;;;;9.07;7.50;;;;;;;-3.89;90.74;96880.16;5093061;28;20539;-73
2021/03/01 05:47:21;;;;;;;9.23;7.63;;;;;;;-3.90;90.82;96895.69;5080450;28;20488;-73
2021/03/01 05:50:10;;;;;;;9.47;8.53;;;;;;;-3.87;90.75;96891.22;5083895;28;20468;-73
2021/03/01 05:53:02;;;;;;;9.73;7.87;;;;;;;-3.83;90.57;96892.81;5094957;28;21109;-73
2021/03/01 05:55:49;;;;;;;11.10;9.63;;;;;;;-3.81;90.92;96883.25;5098692;28;20534;-73
2021/03/01 05:58:39;;;;;;;11.27;9.10;;;;;;;-3.78;90.94;96885.69;5102040;28;20458;-73
2021/03/01 06:01:29;;;;;;;9.17;7.97;;;;;;;-3.76;91.07;96883.88;5092313;28;21093;-73
2021/03/01 06:04:17;;;;;;;8.93;7.73;;;;;;;-3.75;90.88;96880.41;5099714;28;20469;-73
2021/03/01 06:07:04;;;;;;;9.53;8.40;;;;;;;-3.77;90.97;96879.63;5101125;28;20470;-73
2021/03/01 06:09:51;;;;;;;9.53;7.37;;;;;;;-3.76;91.24;96881.28;5093503;27;20463;-73
2021/03/01 06:12:38;;;;;;;10.67;8.80;;;;;;;-3.69;91.15;96888.78;5079119;28;20470;-73
2021/03/01 06:15:26;;;;;;;10.50;9.10;;;;;;;-3.64;90.93;96902.31;5091646;28;20849;-73
2021/03/01 06:18:15;;;;;;;8.20;7.37;;;;;;;-3.62;91.18;96895.34;5093931;28;20470;-73
2021/03/01 06:21:10;;;;;;;9.33;7.77;;;;;;;-3.62;91.01;96885.03;5095979;28;20443;-73
2021/03/01 06:23:58;;;;;;;11.03;9.20;;;;;;;-3.57;90.23;96888.22;5097434;28;20952;-73
2021/03/01 06:26:46;;;;;;;8.50;7.43;;;;;;;-3.53;89.82;96892.34;5096363;28;20729;-72
2021/03/01 06:29:33;;;;;;;11.27;8.47;;;;;;;-3.48;89.42;96892.97;5090742;27;20603;-73
2021/03/01 06:32:20;;;;;;;10.60;9.53;;;;;;;-3.44;89.39;96897.94;5091754;28;25182;-73
2021/03/01 06:35:30;;;;;;;11.90;9.27;;;;;;;-3.36;89.29;96897.63;5068800;28;20880;-73
2021/03/01 06:38:27;;;;;;;11.47;9.10;;;;;;;-3.28;88.72;96900.69;5092604;28;20455;-73
2021/03/01 06:41:16;;;;;;;16.67;10.43;;;;;;;-3.19;88.49;96913.19;5098741;28;20471;-73
2021/03/01 06:44:04;;;;;;;13.27;10.93;;;;;;;-3.12;88.37;96911.13;5098649;28;20500;-72
2021/03/01 06:46:53;;;;;;;15.87;12.40;;;;;;;-3.02;88.72;96911.56;5094002;28;21006;-73
2021/03/01 06:49:43;;;;;;;16.43;11.20;;;;;;;-2.95;87.98;96908.63;5079678;28;20460;-73
2021/03/01 06:52:37;;;;;;;11.23;9.30;;;;;;;-2.84;88.33;96921.03;5094605;28;21010;-73
2021/03/01 06:55:25;;;;;;;10.57;8.57;;;;;;;-2.72;87.91;96917.91;5089880;28;20632;-73
2021/03/01 06:58:16;;;;;;;10.40;9.13;;;;;;;-2.60;88.48;96925.06;5087915;28;20508;-73
2021/03/01 07:01:10;;;;;;;10.67;9.30;;;;;;;-2.49;88.59;96926.31;5076900;28;20616;-73
2021/03/01 07:04:02;;;;;;;11.77;9.80;;;;;;;-2.39;88.17;96923.19;5096174;28;20524;-73
2021/03/01 07:06:51;;;;;;;11.67;10.03;;;;;;;-2.27;87.93;96920.97;5099297;28;20471;-73
2021/03/01 07:09:39;;;;;;;11.60;10.47;;;;;;;-2.16;87.95;96929.84;5084400;28;20603;-73
2021/03/01 07:12:36;;;;;;;14.80;11.67;;;;;;;-2.05;87.90;96925.00;5087118;28;20459;-73
2021/03/01 07:15:23;;;;;;;14.60;11.07;;;;;;;-1.89;87.95;96932.00;5096441;28;20554;-73
2021/03/01 07:18:12;;;;;;;12.93;11.57;;;;;;;-1.74;88.38;96926.91;5097801;28;20983;-73
2021/03/01 07:20:59;;;;;;;14.50;11.77;;;;;;;-1.56;88.29;96919.91;5096181;28;20596;-73
2021/03/01 07:23:48;;;;;;;17.03;9.83;;;;;;;-1.34;87.97;96931.78;5090586;28;20600;-72
2021/03/01 07:26:37;;;;;;;10.93;9.63;;;;;;;-1.13;88.01;96928.03;5093189;28;20462;-73
2021/03/01 07:29:26;;;;;;;10.37;9.30;;;;;;;-0.91;88.15;96923.41;5089478;28;20990;-73
2021/03/01 07:32:16;;;;;;;17.90;10.43;;;;;;;-0.69;87.50;96935.19;5081258;28;20594;-72
2021/03/01 07:35:05;;;;;;;11.17;10.03;;;;;;;-0.46;86.95;96932.16;5101279;28;20474;-72
2021/03/01 07:37:53;;;;;;;16.70;10.63;;;;;;;-0.24;86.11;96928.38;5063570;28;20993;-73
2021/03/01 07:40:40;;;;;;;15.17;10.77;;;;;;;-0.05;85.74;96929.00;5079104;28;20526;-73
2021/03/01 07:43:30;;;;;;;9.93;9.00;;;;;;;0.10;84.90;96933.34;5085091;28;20482;-73
2021/03/01 07:46:18;;;;;;;14.07;10.80;;;;;;;0.31;84.12;96925.22;5088871;28;20849;-73
2021/03/01 07:49:06;;;;;;;11.37;10.27;;;;;;;0.41;84.02;96921.16;5097860;28;20221;-73
2021/03/01 07:51:53;;;;;;;10.90;9.63;;;;;;;0.54;83.84;96925.50;5093144;28;20568;-73
2021/03/01 07:54:51;;;;;;;8.13;7.43;;;;;;;0.73;83.24;96933.06;5089953;28;20236;-73
2021/03/01 07:57:39;;;;;;;11.23;9.47;;;;;;;0.85;82.85;96936.69;5077690;28;20713;-73
2021/03/01 08:00:30;;;;;;;9.60;8.70;;;;;;;1.02;82.14;96927.88;5077708;28;20242;-73
2021/03/01 08:03:36;;;;;;;10.80;9.30;;;;;;;1.22;81.25;96924.84;5096282;28;20218;-72
2021/03/01 08:06:45;;;;;;;9.27;8.37;;;;;;;1.35;80.05;96930.94;5073790;28;20239;-72
2021/03/01 08:09:53;;;;;;;9.73;7.33;;;;;;;1.56;79.20;96917.56;5099202;28;20217;-72
2021/03/01 08:12:59;;;;;;;9.13;8.23;;;;;;;1.66;78.87;96939.44;5116360;27;20219;-72
2021/03/01 08:15:47;;;;;;;9.80;7.57;;;;;;;1.77;78.33;96930.94;5114399;27;20212;-72
2021/03/01 08:18:52;;;;;;;9.20;8.33;;;;;;;1.89;79.10;96936.19;5089552;28;20220;-73
2021/03/01 08:22:04;;;;;;;10.77;8.70;;;;;;;2.07;77.61;96933.31;5098196;28;20358;-72
2021/03/01 08:24:52;;;;;;;7.80;7.07;;;;;;;2.26;77.15;96934.59;5070749;28;20225;-72
2021/03/01 08:27:41;;;;;;;7.83;6.93;;;;;;;2.45;76.33;96929.00;5086878;28;20293;-72
2021/03/01 08:30:34;;;;;;;8.33;7.63;;;;;;;2.65;75.41;96934.66;5090995;28;20228;-72
2021/03/01 08:33:23;;;;;;;7.00;6.50;;;;;;;2.80;75.68;96933.63;5098645;28;20225;-72
2021/03/01 08:36:24;;;;;;;8.13;7.33;;;;;;;3.02;75.83;96928.63;5095931;28;20252;-72
2021/03/01 08:39:12;;;;;;;8.37;7.57;;;;;;;3.22;75.12;96929.00;5085838;28;20338;-72
2021/03/01 08:41:59;;;;;;;7.43;6.83;;;;;;;3.50;73.40;96933.94;5095600;28;20403;-72
2021/03/01 08:44:52;;;;;;;9.83;7.20;;;;;;;3.75;72.82;96926.94;5103857;28;20237;-72
2021/03/01 08:47:50;;;;;;;9.73;8.90;;;;;;;4.03;72.05;96926.63;5098006;27;20288;-72
2021/03/01 08:50:40;;;;;;;8.87;7.73;;;;;;;4.27;70.62;96919.56;5088637;27;20217;-72
2021/03/01 08:53:31;;;;;;;9.07;8.27;;;;;;;4.58;70.57;96927.75;5074439;28;20316;-72
2021/03/01 08:56:20;;;;;;;9.23;7.53;;;;;;;4.80;68.66;96927.78;5116819;27;20920;-72
2021/03/01 08:59:21;;;;;;;9.93;8.93;;;;;;;5.23;68.43;96929.69;5091785;28;20299;-72
2021/03/01 09:02:08;;;;;;;7.63;6.90;;;;;;;5.46;67.12;96937.53;5097445;28;20232;-71
2021/03/01 09:05:05;;;;;;;8.60;7.73;;;;;;;5.60;65.36;96926.81;5080931;28;20213;-72
2021/03/01 09:07:53;;;;;;;12.77;8.13;;;;;;;5.88;65.61;96935.91;5091768;28;20320;-71
2021/03/01 09:10:43;;;;;;;9.20;8.00;;;;;;;6.13;64.23;96921.69;5095748;28;20215;-71
2021/03/01 09:13:35;;;;;;;11.33;8.00;;;;;;;6.42;63.57;96920.13;5082178;28;20226;-71
2021/03/01 09:16:24;;;;;;;9.60;8.70;;;;;;;6.83;62.43;96921.06;5086735;28;20822;-71
2021/03/01 09:19:14;;;;;;;6.40;5.90;;;;;;;6.96;61.29;96924.31;5092606;27;20228;-71
2021/03/01 09:22:01;;;;;;;11.87;9.07;;;;;;;7.28;61.11;96918.09;5099918;28;20372;-72
2021/03/01 09:24:49;;;;;;;9.57;7.97;;;;;;;7.45;60.33;96920.09;5080029;28;20231;-71
2021/03/01 09:27:36;;;;;;;7.43;6.83;;;;;;;7.63;58.56;96910.59;5097281;28;20760;-71
2021/03/01 09:30:25;;;;;;;9.43;7.37;;;;;;;7.91;58.68;96916.03;5078571;28;20853;-71
2021/03/01 09:33:12;;;;;;;8.50;7.80;;;;;;;8.10;58.34;96920.50;5072700;28;20273;-71
2021/03/01 09:35:59;;;;;;;7.73;7.03;;;;;;;8.34;55.81;96917.47;5082646;28;20212;-71
2021/03/01 09:38:52;;;;;;;10.00;8.33;;;;;;;8.48;56.77;96919.69;5092407;28;20291;-71
2021/03/01 09:41:40;;;;;;;6.93;6.07;;;;;;;8.56;55.77;96914.56;5088147;28;20225;-71
2021/03/01 09:44:29;;;;;;;8.33;7.43;;;;;;;9.22;55.42;96913.69;5083971;28;20282;-71
2021/03/01 09:47:16;;;;;;;8.30;7.63;;;;;;;9.48;53.11;96919.13;5101883;28;20242;-71
2021/03/01 09:50:05;;;;;;;10.53;7.87;;;;;;;9.70;52.99;96913.47;5080181;28;20217;-71
2021/03/01 09:52:52;;;;;;;8.43;7.57;;;;;;;10.26;51.57;96907.16;5082061;28;20663;-71
2021/03/01 09:55:39;;;;;;;6.87;6.33;;;;;;;10.55;50.06;96909.53;5081374;28;20574;-71
2021/03/01 09:58:30;;;;;;;7.43;6.00;;;;;;;11.22;48.76;96912.47;5083349;28;20305;-71
2021/03/01 10:01:18;;;;;;;6.00;5.50;;;;;;;11.13;49.04;96908.13;5096468;28;20219;-70
2021/03/01 10:04:06;;;;;;;7.23;6.53;;;;;;;11.52;48.33;96909.31;5094965;27;20693;-71
2021/03/01 10:06:53;;;;;;;7.93;7.20;;;;;;;11.96;46.56;96906.50;5103789;27;20228;-71
2021/03/01 10:09:40;;;;;;;8.27;7.43;;;;;;;12.24;45.17;96904.41;5082010;28;20232;-71
2021/03/01 10:12:27;;;;;;;7.50;6.90;;;;;;;12.71;44.92;96899.31;5070914;28;20273;-71
2021/03/01 10:15:15;;;;;;;6.80;6.30;;;;;;;12.66;44.86;96898.97;5089381;28;20251;-71
2021/03/01 10:18:05;;;;;;;6.23;5.83;;;;;;;13.37;43.99;96890.25;5092600;28;20291;-71
2021/03/01 10:20:55;;;;;;;7.97;7.43;;;;;;;13.29;42.33;96890.28;5087777;28;20665;-71
2021/03/01 10:23:43;;;;;;;8.37;7.47;;;;;;;13.85;42.36;96887.56;5082439;28;20221;-71
2021/03/01 10:26:32;;;;;;;6.37;5.87;;;;;;;14.20;41.47;96883.53;5083834;28;20655;-71
2021/03/01 10:29:29;;;;;;;7.17;6.43;;;;;;;14.45;40.20;96877.09;5082246;28;20248;-71
2021/03/01 10:32:19;;;;;;;6.63;6.03;;;;;;;14.77;40.06;96880.47;5058993;28;20270;-71
2021/03/01 10:35:18;;;;;;;6.80;6.20;;;;;;;14.99;39.46;96879.56;5074893;28;20390;-69
2021/03/01 10:38:17;;;;;;;6.27;5.67;;;;;;;14.94;38.78;96876.66;5079392;28;20212;-68
2021/03/01 10:41:15;;;;;;;5.60;5.17;;;;;;;15.12;38.04;96868.31;5092714;28;20222;-68
2021/03/01 10:44:06;;;;;;;6.13;5.63;;;;;;;15.10;38.06;96864.19;5089965;28;20220;-68
2021/03/01 10:46:54;;;;;;;6.27;5.77;;;;;;;15.56;37.74;96855.00;5084865;28;20324;-68
2021/03/01 10:49:43;;;;;;;4.90;4.57;;;;;;;15.34;37.17;96861.25;5087510;28;20232;-69
2021/03/01 10:52:37;;;;;;;4.67;4.27;;;;;;;15.35;36.02;96857.56;5049409;27;20593;-70
2021/03/01 10:55:25;;;;;;;6.10;5.60;;;;;;;15.28;36.07;96851.38;5079997;28;20360;-70
2021/03/01 10:58:12;;;;;;;5.70;5.33;;;;;;;16.07;35.67;96852.34;5107997;27;20252;-70
2021/03/01 11:00:59;;;;;;;5.10;4.37;;;;;;;16.25;34.39;96851.91;5084894;28;20297;-70
2021/03/01 11:03:46;;;;;;;8.77;5.87;;;;;;;16.09;34.57;96838.81;5091848;27;20311;-70
2021/03/01 11:06:34;;;;;;;5.87;5.03;;;;;;;16.92;34.93;96840.00;5105232;28;20222;-70
2021/03/01 11:09:23;;;;;;;5.57;5.17;;;;;;;16.77;33.76;96843.59;5110547;27;20207;-70
2021/03/01 11:12:11;;;;;;;6.90;4.10;;;;;;;16.97;33.69;96848.22;5109202;27;20255;-70
2021/03/01 11:14:58;;;;;;;5.40;5.00;;;;;;;16.90;33.88;96842.03;5122591;27;20219;-70
2021/03/01 11:17:45;;;;;;;10.90;6.53;;;;;;;16.51;33.22;96846.00;5129062;27;20220;-70
2021/03/01 11:20:33;;;;;;;5.87;5.47;;;;;;;16.32;33.42;96836.00;5135058;27;20211;-70
2021/03/01 11:23:20;;;;;;;4.67;4.37;;;;;;;16.85;32.71;96839.13;5127104;27;20864;-70
2021/03/01 11:26:08;;;;;;;4.80;3.93;;;;;;;17.11;32.91;96823.31;5133107;27;20648;-70
2021/03/01 11:28:56;;;;;;;5.33;4.97;;;;;;;17.25;32.50;96835.69;5135042;27;20303;-70
2021/03/01 11:31:43;;;;;;;5.10;4.70;;;;;;;17.04;34.17;96835.78;5125079;27;20805;-70
2021/03/01 11:34:30;;;;;;;6.03;4.73;;;;;;;16.77;34.28;96816.09;5134824;27;20231;-70
2021/03/01 11:37:17;;;;;;;5.23;4.70;;;;;;;16.66;33.90;96821.94;5107785;27;20303;-70
2021/03/01 11:40:06;;;;;;;5.50;4.93;;;;;;;16.06;34.31;96807.25;5111404;27;20227;-70
2021/03/01 11:42:54;;;;;;;4.50;4.20;;;;;;;16.21;33.83;96816.84;5132629;27;20467;-70
2021/03/01 11:45:41;;;;;;;5.13;4.73;;;;;;;15.84;34.81;96809.09;5118005;27;20268;-70
2021/03/01 11:48:29;;;;;;;4.67;4.23;;;;;;;15.01;34.82;96808.47;5128326;27;20222;-70
2021/03/01 11:51:17;;;;;;;4.13;3.83;;;;;;;14.86;35.70;96804.13;5118249;27;20215;-70
2021/03/01 11:54:05;;;;;;;4.63;4.23;;;;;;;14.75;35.47;96802.75;5104963;27;20613;-70
2021/03/01 11:56:53;;;;;;;5.07;4.77;;;;;;;14.96;36.04;96805.50;5126845;27;20588;-70
2021/03/01 11:59:41;;;;;;;3.80;3.50;;;;;;;14.72;35.96;96792.47;5124119;27;20207;-70
2021/03/01 12:02:28;;;;;;;5.50;4.67;;;;;;;15.11;37.09;96796.72;5116414;27;20603;-70
2021/03/01 12:05:16;;;;;;;4.97;4.67;;;;;;;15.16;36.22;96789.00;5116866;27;20219;-70
2021/03/01 12:08:03;;;;;;;4.43;4.03;;;;;;;14.78;36.89;96784.59;5114634;27;20241;-70
2021/03/01 12:10:51;;;;;;;4.77;4.47;;;;;;;14.65;36.01;96780.94;5113622;27;20637;-70
2021/03/01 12:13:39;;;;;;;5.57;4.97;;;;;;;14.77;36.37;96774.16;5112140;27;20233;-70
2021/03/01 12:16:27;;;;;;;6.00;5.60;;;;;;;14.61;35.70;96776.97;5115076;27;20216;-70
2021/03/01 12:19:14;;;;;;;5.40;5.03;;;;;;;14.71;35.93;96769.56;5122290;27;20227;-70
2021/03/01 12:22:01;;;;;;;8.13;6.07;;;;;;;14.94;35.70;96774.81;5105875;27;20365;-70
2021/03/01 12:24:49;;;;;;;7.20;5.83;;;;;;;14.74;36.36;96769.22;5113387;27;20243;-70
2021/03/01 12:27:36;;;;;;;6.37;5.77;;;;;;;14.53;37.05;96761.94;5114287;27;20216;-70
2021/03/01 12:30:23;;;;;;;5.27;4.83;;;;;;;14.59;36.91;96765.72;5118562;27;20219;-70
2021/03/01 12:33:21;;;;;;;5.10;4.23;;;;;;;14.01;36.48;96759.25;5101790;27;20240;-70
2021/03/01 12:36:09;;;;;;;5.40;4.97;;;;;;;13.93;38.38;96760.97;5116399;27;20723;-70
2021/03/01 12:38:56;;;;;;;8.97;4.53;;;;;;;13.81;37.30;96754.44;5095710;28;20248;-71
2021/03/01 12:41:43;;;;;;;4.70;4.40;;;;;;;13.56;38.52;96750.28;5089070;27;20225;-71
2021/03/01 12:44:30;;;;;;;4.40;4.10;;;;;;;13.44;37.66;96759.63;5096184;27;20301;-71
2021/03/01 12:47:18;;;;;;;4.87;4.27;;;;;;;13.65;39.09;96751.88;5115711;27;20219;-71
2021/03/01 12:50:08;;;;;;;5.37;4.00;;;;;;;13.94;37.59;96741.38;5121679;27;20216;-71
2021/03/01 12:52:56;;;;;;;5.87;4.17;;;;;;;14.02;36.67;96748.47;5112493;27;20302;-71
2021/03/01 12:55:43;;;;;;;5.13;4.70;;;;;;;14.37;35.73;96741.69;5113744;27;20294;-72
2021/03/01 12:58:30;;;;;;;4.90;4.27;;;;;;;14.61;35.88;96732.66;5113708;27;20234;-71
2021/03/01 13:01:17;;;;;;;4.83;4.20;;;;;;;14.46;36.50;96737.16;5105523;27;20235;-71
2021/03/01 13:04:07;;;;;;;4.07;3.77;;;;;;;14.06;36.66;96722.38;5121697;27;20220;-71
2021/03/01 13:06:56;;;;;;;5.00;4.57;;;;;;;14.14;36.74;96722.31;5120397;27;20685;-71
2021/03/01 13:09:43;;;;;;;5.13;4.63;;;;;;;14.36;36.42;96723.28;5114477;27;20233;-71
2021/03/01 13:12:30;;;;;;;5.20;4.80;;;;;;;14.56;36.50;96715.63;5114661;27;20212;-71
2021/03/01 13:15:17;;;;;;;4.47;4.07;;;;;;;14.56;35.81;96713.78;5104338;27;20246;-70